createdAt,value
2018-11-14T00:00:25.352Z,4.17
2018-11-14T00:02:52.894Z,4.97
2018-11-14T00:05:20.419Z,4.50
2018-11-14T00:07:47.930Z,4.37
2018-11-14T00:10:15.588Z,4.53
2018-11-14T00:12:43.876Z,4.07
2018-11-14T00:15:13.523Z,4.10
2018-11-14T00:17:42.111Z,3.97
2018-11-14T00:20:10.475Z,4.37
2018-11-14T00:22:38.102Z,4.00
2018-11-14T00:25:05.834Z,4.40
2018-11-14T00:27:33.373Z,4.33
2018-11-14T00:30:00.895Z,4.37
2018-11-14T00:32:28.548Z,3.93
2018-11-14T00:34:56.570Z,4.30
2018-11-14T00:37:23.749Z,3.77
2018-11-14T00:39:51.274Z,4.57
2018-11-14T00:42:18.801Z,4.70
2018-11-14T00:44:46.348Z,4.10
2018-11-14T00:47:13.891Z,4.10
2018-11-14T00:49:41.549Z,4.37
2018-11-14T00:52:09.192Z,4.17
2018-11-14T00:54:36.715Z,4.50
2018-11-14T00:57:04.391Z,4.53
2018-11-14T00:59:31.896Z,4.27
2018-11-14T01:01:59.497Z,4.37
2018-11-14T01:04:27.030Z,4.50
2018-11-14T01:06:54.563Z,4.87
2018-11-14T01:09:22.119Z,4.30
2018-11-14T01:11:49.679Z,4.60
2018-11-14T01:14:17.267Z,4.73
2018-11-14T01:16:44.838Z,4.53
2018-11-14T01:19:12.367Z,4.40
2018-11-14T01:21:39.893Z,4.90
2018-11-14T01:24:07.869Z,4.40
2018-11-14T01:26:35.441Z,4.10
2018-11-14T01:29:03.062Z,5.90
2018-11-14T01:31:30.749Z,4.40
2018-11-14T01:33:58.300Z,4.83
2018-11-14T01:36:25.791Z,5.13
2018-11-14T01:38:53.311Z,4.70
2018-11-14T01:41:20.913Z,4.77
2018-11-14T01:43:48.544Z,5.33
2018-11-14T01:46:16.091Z,4.47
2018-11-14T01:48:43.605Z,5.57
2018-11-14T01:51:11.159Z,4.27
2018-11-14T01:53:38.756Z,4.70
2018-11-14T01:56:06.395Z,4.67
2018-11-14T01:58:33.915Z,5.00
2018-11-14T02:01:01.445Z,4.60
2018-11-14T02:03:28.979Z,4.80
2018-11-14T02:05:56.537Z,4.63
2018-11-14T02:08:24.164Z,4.73
2018-11-14T02:10:51.752Z,4.77
2018-11-14T02:13:19.338Z,4.57
2018-11-14T02:15:46.893Z,5.50
2018-11-14T02:18:14.441Z,4.70
2018-11-14T02:20:41.996Z,5.00
2018-11-14T02:23:10.583Z,5.50
2018-11-14T02:25:38.196Z,4.90
2018-11-14T02:28:05.901Z,4.70
2018-11-14T02:30:33.404Z,4.43
2018-11-14T02:33:00.956Z,5.47
2018-11-14T02:35:28.565Z,4.60
2018-11-14T02:37:56.109Z,4.50
2018-11-14T02:40:23.742Z,5.50
2018-11-14T02:42:51.298Z,5.03
2018-11-14T02:45:18.848Z,5.03
2018-11-14T02:47:46.403Z,5.00
2018-11-14T02:50:15.306Z,5.50
2018-11-14T02:52:42.811Z,5.50
2018-11-14T02:55:12.104Z,5.37
2018-11-14T02:57:39.856Z,5.10
2018-11-14T03:00:09.028Z,5.83
2018-11-14T03:02:36.545Z,5.40
2018-11-14T03:05:04.568Z,6.60
2018-11-14T03:07:32.089Z,5.53
2018-11-14T03:09:59.961Z,5.20
2018-11-14T03:12:27.547Z,5.80
2018-11-14T03:14:55.251Z,5.33
2018-11-14T03:17:22.778Z,5.33
2018-11-14T03:19:50.281Z,5.60
2018-11-14T03:22:17.791Z,5.27
2018-11-14T03:24:45.334Z,5.37
2018-11-14T03:27:12.935Z,4.93
2018-11-14T03:29:40.600Z,4.77
2018-11-14T03:32:08.209Z,4.90
2018-11-14T03:34:36.043Z,5.63
2018-11-14T03:37:03.633Z,4.63
2018-11-14T03:39:31.201Z,5.27
2018-11-14T03:41:58.727Z,5.20
2018-11-14T03:44:26.324Z,5.50
2018-11-14T03:46:53.832Z,5.13
2018-11-14T03:49:21.716Z,5.30
2018-11-14T03:51:49.233Z,5.77
2018-11-14T03:54:16.856Z,5.70
2018-11-14T03:56:44.438Z,5.13
2018-11-14T03:59:12.111Z,5.40
2018-11-14T04:01:39.680Z,5.03
2018-11-14T04:04:07.212Z,5.17
2018-11-14T04:06:34.788Z,5.20
2018-11-14T04:09:02.799Z,6.30
2018-11-14T04:11:30.347Z,5.20
2018-11-14T04:13:57.867Z,5.83
2018-11-14T04:16:25.433Z,6.10
2018-11-14T04:18:53.012Z,5.53
2018-11-14T04:21:20.608Z,6.37
2018-11-14T04:23:49.786Z,6.07
2018-11-14T04:26:17.450Z,5.30
2018-11-14T04:28:45.388Z,5.97
2018-11-14T04:31:12.977Z,5.13
2018-11-14T04:33:40.479Z,6.20
2018-11-14T04:36:08.008Z,6.37
2018-11-14T04:38:35.563Z,6.00
2018-11-14T04:41:03.168Z,6.00
2018-11-14T04:43:30.693Z,5.90
2018-11-14T04:45:58.224Z,6.20
2018-11-14T04:48:25.763Z,5.27
2018-11-14T04:50:53.279Z,5.53
2018-11-14T04:53:20.815Z,6.37
2018-11-14T04:55:48.509Z,5.80
2018-11-14T04:58:16.093Z,5.53
2018-11-14T05:00:43.620Z,5.73
2018-11-14T05:03:11.115Z,5.87
2018-11-14T05:05:38.711Z,5.40
2018-11-14T05:08:06.316Z,5.43
2018-11-14T05:10:33.936Z,5.57
2018-11-14T05:13:01.509Z,5.73
2018-11-14T05:15:29.313Z,5.63
2018-11-14T05:17:56.866Z,6.00
2018-11-14T05:20:24.435Z,5.40
2018-11-14T05:22:52.338Z,5.70
2018-11-14T05:25:19.945Z,6.20
2018-11-14T05:27:47.475Z,5.93
2018-11-14T05:30:16.231Z,5.77
2018-11-14T05:32:44.727Z,6.20
2018-11-14T05:35:12.824Z,5.93
2018-11-14T05:37:40.434Z,5.50
2018-11-14T05:40:10.220Z,5.93
2018-11-14T05:42:38.359Z,5.80
2018-11-14T05:45:10.336Z,5.57
2018-11-14T05:47:38.360Z,5.67
2018-11-14T05:50:09.663Z,6.00
2018-11-14T05:52:37.259Z,5.50
2018-11-14T05:55:05.218Z,5.63
2018-11-14T05:57:32.716Z,5.93
2018-11-14T06:00:00.336Z,7.10
2018-11-14T06:02:27.880Z,6.13
2018-11-14T06:04:55.503Z,5.27
2018-11-14T06:07:23.161Z,5.57
2018-11-14T06:09:50.589Z,6.00
2018-11-14T06:12:18.125Z,5.70
2018-11-14T06:14:45.648Z,5.13
2018-11-14T06:17:13.304Z,5.23
2018-11-14T06:19:40.946Z,5.50
2018-11-14T06:22:08.585Z,6.23
2018-11-14T06:24:36.087Z,6.17
2018-11-14T06:27:03.592Z,7.53
2018-11-14T06:29:31.132Z,6.33
2018-11-14T06:31:58.728Z,5.63
2018-11-14T06:34:26.333Z,6.00
2018-11-14T06:36:53.925Z,6.03
2018-11-14T06:39:21.910Z,7.63
2018-11-14T06:41:54.904Z,7.17
2018-11-14T06:44:22.546Z,6.60
2018-11-14T06:46:50.135Z,6.37
2018-11-14T06:49:17.664Z,5.97
2018-11-14T06:51:45.187Z,6.83
2018-11-14T06:54:12.745Z,6.53
2018-11-14T06:56:40.244Z,6.83
2018-11-14T06:59:07.849Z,6.97
2018-11-14T07:01:35.423Z,6.53
2018-11-14T07:04:03.005Z,6.53
2018-11-14T07:06:30.530Z,5.93
2018-11-14T07:08:58.088Z,6.23
2018-11-14T07:11:25.600Z,7.40
2018-11-14T07:13:53.100Z,8.53
2018-11-14T07:16:20.706Z,7.00
2018-11-14T07:18:48.242Z,7.10
2018-11-14T07:21:15.757Z,7.10
2018-11-14T07:23:43.281Z,6.97
2018-11-14T07:26:10.844Z,7.20
2018-11-14T07:28:38.386Z,7.73
2018-11-14T07:31:05.980Z,7.07
2018-11-14T07:33:33.512Z,7.50
2018-11-14T07:36:01.034Z,7.13
2018-11-14T07:38:34.715Z,6.63
2018-11-14T07:41:03.153Z,6.80
2018-11-14T07:43:31.191Z,6.10
2018-11-14T07:45:58.737Z,6.60
2018-11-14T07:48:26.389Z,6.60
2018-11-14T07:50:53.987Z,6.43
2018-11-14T07:53:21.581Z,5.80
2018-11-14T07:55:49.071Z,6.60
2018-11-14T07:58:16.626Z,6.20
2018-11-14T08:00:44.212Z,6.50
2018-11-14T08:03:12.102Z,6.90
2018-11-14T08:05:39.610Z,6.57
2018-11-14T08:08:07.190Z,7.67
2018-11-14T08:10:34.717Z,7.17
2018-11-14T08:13:02.332Z,6.07
2018-11-14T08:15:29.899Z,6.37
2018-11-14T08:17:57.505Z,6.73
2018-11-14T08:20:25.034Z,5.83
2018-11-14T08:22:53.106Z,6.97
2018-11-14T08:25:20.648Z,6.97
2018-11-14T08:27:48.195Z,7.10
2018-11-14T08:30:15.988Z,6.93
2018-11-14T08:32:43.625Z,7.10
2018-11-14T08:35:11.134Z,6.93
2018-11-14T08:37:39.400Z,7.57
2018-11-14T08:40:08.280Z,7.20
2018-11-14T08:42:36.331Z,7.13
2018-11-14T08:45:05.132Z,8.00
2018-11-14T08:47:32.668Z,7.67
2018-11-14T08:50:00.216Z,6.70
2018-11-14T08:52:27.847Z,6.93
2018-11-14T08:54:55.500Z,7.20
2018-11-14T08:57:23.230Z,6.90
2018-11-14T08:59:50.766Z,6.70
2018-11-14T09:02:18.304Z,6.87
2018-11-14T09:04:45.828Z,7.60
2018-11-14T09:07:13.476Z,7.40
2018-11-14T09:09:41.103Z,7.70
2018-11-14T09:12:09.101Z,7.83
2018-11-14T09:14:37.071Z,7.87
2018-11-14T09:17:05.187Z,7.40
2018-11-14T09:19:32.727Z,7.73
2018-11-14T09:22:00.945Z,7.27
2018-11-14T09:24:29.330Z,7.73
2018-11-14T09:26:57.499Z,7.43
2018-11-14T09:29:25.532Z,7.63
2018-11-14T09:31:53.108Z,7.60
2018-11-14T09:34:21.183Z,7.40
2018-11-14T09:36:48.723Z,7.27
2018-11-14T09:39:16.258Z,7.07
2018-11-14T09:41:43.868Z,8.17
2018-11-14T09:44:11.467Z,7.47
2018-11-14T09:46:39.093Z,7.13
2018-11-14T09:49:06.688Z,7.00
2018-11-14T09:51:34.664Z,6.47
2018-11-14T09:54:02.350Z,6.50
2018-11-14T09:56:29.955Z,6.70
2018-11-14T09:58:57.512Z,6.90
2018-11-14T10:01:25.199Z,6.53
2018-11-14T10:03:52.746Z,6.70
2018-11-14T10:06:20.287Z,7.57
2018-11-14T10:08:47.848Z,6.77
2018-11-14T10:11:15.453Z,7.10
2018-11-14T10:13:43.176Z,6.90
2018-11-14T10:16:10.758Z,6.60
2018-11-14T10:18:38.296Z,7.07
2018-11-14T10:21:05.915Z,6.97
2018-11-14T10:23:33.468Z,6.57
2018-11-14T10:26:01.092Z,6.70
2018-11-14T10:28:28.638Z,6.60
2018-11-14T10:30:56.196Z,6.63
2018-11-14T10:33:23.746Z,6.50
2018-11-14T10:35:51.396Z,6.60
2018-11-14T10:38:19.072Z,6.50
2018-11-14T10:40:46.974Z,6.50
2018-11-14T10:43:14.490Z,6.07
2018-11-14T10:45:42.047Z,5.87
2018-11-14T10:48:09.681Z,5.43
2018-11-14T10:50:37.259Z,6.30
2018-11-14T10:53:05.034Z,5.83
2018-11-14T10:55:32.617Z,5.90
2018-11-14T10:58:00.149Z,5.40
2018-11-14T11:00:33.318Z,6.47
2018-11-14T11:03:07.036Z,6.10
2018-11-14T11:05:40.439Z,5.60
2018-11-14T11:08:13.611Z,5.73
2018-11-14T11:10:46.743Z,5.50
2018-11-14T11:13:21.182Z,5.40
2018-11-14T11:15:54.431Z,5.63
2018-11-14T11:18:25.361Z,5.47
2018-11-14T11:20:53.167Z,5.53
2018-11-14T11:23:20.832Z,5.10
2018-11-14T11:25:48.544Z,5.40
2018-11-14T11:28:16.064Z,4.67
2018-11-14T11:30:43.638Z,5.60
2018-11-14T11:33:11.339Z,5.10
2018-11-14T11:35:38.955Z,4.90
2018-11-14T11:38:06.629Z,4.77
2018-11-14T11:40:34.631Z,4.97
2018-11-14T11:43:03.434Z,4.77
2018-11-14T11:45:31.269Z,5.30
2018-11-14T11:47:58.844Z,4.27
2018-11-14T11:50:26.494Z,4.50
2018-11-14T11:52:54.251Z,4.63
2018-11-14T11:55:21.854Z,5.27
2018-11-14T11:57:49.419Z,4.53
2018-11-14T12:00:17.070Z,4.77
2018-11-14T12:02:44.509Z,4.33
2018-11-14T12:05:13.344Z,4.50
2018-11-14T12:07:41.584Z,4.87
2018-11-14T12:10:10.529Z,4.50
2018-11-14T12:12:38.129Z,4.80
2018-11-14T12:15:07.241Z,4.83
2018-11-14T12:17:34.856Z,4.60
2018-11-14T12:20:02.458Z,4.27
2018-11-14T12:22:30.049Z,4.07
2018-11-14T12:24:57.703Z,4.50
2018-11-14T12:27:25.310Z,4.80
2018-11-14T12:29:52.862Z,3.70
2018-11-14T12:32:20.346Z,4.07
2018-11-14T12:34:48.829Z,3.50
2018-11-14T12:37:16.432Z,3.60
2018-11-14T12:39:44.107Z,4.00
2018-11-14T12:42:11.624Z,3.60
2018-11-14T12:44:39.154Z,3.70
2018-11-14T12:47:06.686Z,3.43
2018-11-14T12:49:34.387Z,3.50
2018-11-14T12:52:02.021Z,3.30
2018-11-14T12:54:30.580Z,3.20
2018-11-14T12:56:58.480Z,3.50
2018-11-14T12:59:26.102Z,3.50
2018-11-14T13:01:53.640Z,3.27
2018-11-14T13:04:21.227Z,3.10
2018-11-14T13:06:48.919Z,3.17
2018-11-14T13:09:16.618Z,4.80
2018-11-14T13:11:44.157Z,3.40
2018-11-14T13:14:11.848Z,3.60
2018-11-14T13:16:39.461Z,4.20
2018-11-14T13:19:06.972Z,3.27
2018-11-14T13:21:34.515Z,3.80
2018-11-14T13:24:02.056Z,3.67
2018-11-14T13:26:29.672Z,3.50
2018-11-14T13:28:57.428Z,3.20
2018-11-14T13:31:24.895Z,3.57
2018-11-14T13:33:52.459Z,3.20
2018-11-14T13:36:20.000Z,3.07
2018-11-14T13:38:47.609Z,2.70
2018-11-14T13:41:15.283Z,3.20
2018-11-14T13:43:42.953Z,3.10
2018-11-14T13:46:10.491Z,3.73
2018-11-14T13:48:38.100Z,3.63
2018-11-14T13:51:06.607Z,3.47
2018-11-14T13:53:33.966Z,2.83
2018-11-14T13:56:01.585Z,3.10
2018-11-14T13:58:29.144Z,3.27
2018-11-14T14:00:56.726Z,3.20
2018-11-14T14:03:24.348Z,3.23
2018-11-14T14:05:51.909Z,2.93
2018-11-14T14:08:19.454Z,2.57
2018-11-14T14:10:46.969Z,2.63
2018-11-14T14:13:14.504Z,2.90
2018-11-14T14:15:42.166Z,2.90
2018-11-14T14:18:09.743Z,2.73
2018-11-14T14:20:37.322Z,3.00
2018-11-14T14:23:05.117Z,2.97
2018-11-14T14:25:32.769Z,3.40
2018-11-14T14:28:00.733Z,2.57
2018-11-14T14:30:28.453Z,2.57
2018-11-14T14:32:56.052Z,2.50
2018-11-14T14:35:23.625Z,2.83
2018-11-14T14:37:51.298Z,2.40
2018-11-14T14:40:20.044Z,2.33
2018-11-14T14:42:47.624Z,2.40
2018-11-14T14:45:17.503Z,2.90
2018-11-14T14:47:45.151Z,2.73
2018-11-14T14:50:14.973Z,2.20
2018-11-14T14:52:43.040Z,2.57
2018-11-14T14:55:13.154Z,2.10
2018-11-14T14:57:41.008Z,2.40
2018-11-14T15:00:13.985Z,1.80
2018-11-14T15:02:42.090Z,2.00
2018-11-14T15:05:10.785Z,1.87
2018-11-14T15:07:38.647Z,2.77
2018-11-14T15:10:08.039Z,2.10
2018-11-14T15:12:35.609Z,2.37
2018-11-14T15:15:03.331Z,2.30
2018-11-14T15:17:30.880Z,2.00
2018-11-14T15:19:59.085Z,2.90
2018-11-14T15:22:26.704Z,2.63
2018-11-14T15:24:54.752Z,2.60
2018-11-14T15:27:22.397Z,2.80
2018-11-14T15:29:49.991Z,3.00
2018-11-14T15:32:17.642Z,3.33
2018-11-14T15:34:45.185Z,3.40
2018-11-14T15:37:12.719Z,3.00
2018-11-14T15:39:40.279Z,3.10
2018-11-14T15:42:07.919Z,3.13
2018-11-14T15:44:35.517Z,3.30
2018-11-14T15:47:03.077Z,3.33
2018-11-14T15:49:30.624Z,3.07
2018-11-14T15:51:58.206Z,3.27
2018-11-14T15:54:25.859Z,3.67
2018-11-14T15:56:53.424Z,3.20
2018-11-14T15:59:20.943Z,3.70
2018-11-14T16:01:48.460Z,3.50
2018-11-14T16:04:16.152Z,3.80
2018-11-14T16:06:43.784Z,5.53
2018-11-14T16:09:12.559Z,3.67
2018-11-14T16:11:40.237Z,3.87
2018-11-14T16:14:07.792Z,3.60
2018-11-14T16:16:35.341Z,3.60
2018-11-14T16:19:02.931Z,3.40
2018-11-14T16:21:30.499Z,4.47
2018-11-14T16:23:58.048Z,3.70
2018-11-14T16:26:25.588Z,4.10
2018-11-14T16:28:53.115Z,4.33
2018-11-14T16:31:20.656Z,3.93
2018-11-14T16:33:48.348Z,3.83
2018-11-14T16:36:15.927Z,3.93
2018-11-14T16:38:43.462Z,5.23
2018-11-14T16:41:11.169Z,3.43
2018-11-14T16:43:38.822Z,4.37
2018-11-14T16:46:06.486Z,4.33
2018-11-14T16:48:34.079Z,3.37
2018-11-14T16:51:01.736Z,3.70
2018-11-14T16:53:29.372Z,3.60
2018-11-14T16:55:57.055Z,4.30
2018-11-14T16:58:24.615Z,4.50
2018-11-14T17:00:52.219Z,4.53
2018-11-14T17:03:20.624Z,4.90
2018-11-14T17:05:48.292Z,4.60
2018-11-14T17:08:15.880Z,4.70
2018-11-14T17:10:43.407Z,4.63
2018-11-14T17:13:10.953Z,4.33
2018-11-14T17:15:38.499Z,4.67
2018-11-14T17:18:06.166Z,4.80
2018-11-14T17:20:33.707Z,4.43
2018-11-14T17:23:01.372Z,4.17
2018-11-14T17:25:28.894Z,5.63
2018-11-14T17:27:56.464Z,4.47
2018-11-14T17:30:25.428Z,4.63
2018-11-14T17:32:53.367Z,4.70
2018-11-14T17:35:22.091Z,4.40
2018-11-14T17:37:51.738Z,4.77
2018-11-14T17:40:21.973Z,4.87
2018-11-14T17:42:50.693Z,6.23
2018-11-14T17:45:20.314Z,6.03
2018-11-14T17:47:48.551Z,5.80
2018-11-14T17:50:17.988Z,6.37
2018-11-14T17:52:46.244Z,6.00
2018-11-14T17:55:14.865Z,5.77
2018-11-14T17:57:42.645Z,6.10
2018-11-14T18:00:11.751Z,6.00
2018-11-14T18:02:40.383Z,5.70
2018-11-14T18:05:10.015Z,6.13
2018-11-14T18:07:37.645Z,6.93
2018-11-14T18:10:06.507Z,5.80
2018-11-14T18:12:34.117Z,5.60
2018-11-14T18:15:01.782Z,5.80
2018-11-14T18:17:29.339Z,5.40
2018-11-14T18:19:56.856Z,5.33
2018-11-14T18:22:24.451Z,5.90
2018-11-14T18:24:51.987Z,5.10
2018-11-14T18:27:19.687Z,5.13
2018-11-14T18:29:47.261Z,4.70
2018-11-14T18:32:14.820Z,5.23
2018-11-14T18:34:42.477Z,4.87
2018-11-14T18:37:10.124Z,4.77
2018-11-14T18:39:37.802Z,5.07
2018-11-14T18:42:05.260Z,5.27
2018-11-14T18:44:32.872Z,4.80
2018-11-14T18:47:00.419Z,5.73
2018-11-14T18:49:28.079Z,4.97
2018-11-14T18:51:55.723Z,4.70
2018-11-14T18:54:23.467Z,4.90
2018-11-14T18:56:51.078Z,5.17
2018-11-14T18:59:18.623Z,5.07
2018-11-14T19:01:46.183Z,4.87
2018-11-14T19:04:13.828Z,5.30
2018-11-14T19:06:41.381Z,5.07
2018-11-14T19:09:08.927Z,4.93
2018-11-14T19:11:36.997Z,5.07
2018-11-14T19:14:04.649Z,5.03
2018-11-14T19:16:32.229Z,6.13
2018-11-14T19:18:59.798Z,5.37
2018-11-14T19:21:27.323Z,5.80
2018-11-14T19:23:54.893Z,5.97
2018-11-14T19:26:22.498Z,5.83
2018-11-14T19:28:50.202Z,5.30
2018-11-14T19:31:17.810Z,5.80
2018-11-14T19:33:45.346Z,5.80
2018-11-14T19:36:12.880Z,6.13
2018-11-14T19:38:40.577Z,5.43
2018-11-14T19:41:08.306Z,6.03
2018-11-14T19:43:35.866Z,6.27
2018-11-14T19:46:03.435Z,6.17
2018-11-14T19:48:30.959Z,6.00
2018-11-14T19:50:58.663Z,7.53
2018-11-14T19:53:26.314Z,7.40
2018-11-14T19:55:53.894Z,6.70
2018-11-14T19:58:21.434Z,7.50
2018-11-14T20:00:49.007Z,6.93
2018-11-14T20:03:16.744Z,7.10
2018-11-14T20:05:44.309Z,6.47
2018-11-14T20:08:11.983Z,6.97
2018-11-14T20:10:39.589Z,6.40
2018-11-14T20:13:07.135Z,6.53
2018-11-14T20:15:35.745Z,6.70
2018-11-14T20:18:03.474Z,6.30
2018-11-14T20:20:32.441Z,7.53
2018-11-14T20:23:00.092Z,8.07
2018-11-14T20:25:27.746Z,8.23
2018-11-14T20:27:55.310Z,8.57
2018-11-14T20:30:25.030Z,8.30
2018-11-14T20:32:53.758Z,7.90
2018-11-14T20:35:22.106Z,7.87
2018-11-14T20:37:49.795Z,8.10
2018-11-14T20:40:18.669Z,9.60
2018-11-14T20:42:46.999Z,9.93
2018-11-14T20:45:18.218Z,8.33
2018-11-14T20:47:45.855Z,7.80
2018-11-14T20:50:15.652Z,8.30
2018-11-14T20:52:43.972Z,8.40
2018-11-14T20:55:11.891Z,10.37
2018-11-14T20:57:40.327Z,9.53
2018-11-14T21:00:11.831Z,8.80
2018-11-14T21:02:40.039Z,9.40
2018-11-14T21:05:09.118Z,8.67
2018-11-14T21:07:36.622Z,8.30
2018-11-14T21:10:04.668Z,8.47
2018-11-14T21:12:32.240Z,8.03
2018-11-14T21:14:59.788Z,8.70
2018-11-14T21:17:27.393Z,8.33
2018-11-14T21:19:54.928Z,9.00
2018-11-14T21:22:22.443Z,9.07
2018-11-14T21:24:50.062Z,9.20
2018-11-14T21:27:17.738Z,8.00
2018-11-14T21:29:45.366Z,8.20
2018-11-14T21:32:12.868Z,8.20
2018-11-14T21:34:40.407Z,8.33
2018-11-14T21:37:07.980Z,7.67
2018-11-14T21:39:35.535Z,8.77
2018-11-14T21:42:03.140Z,9.03
2018-11-14T21:44:30.959Z,9.30
2018-11-14T21:46:58.463Z,8.60
2018-11-14T21:49:29.156Z,8.53
2018-11-14T21:51:57.808Z,8.13
2018-11-14T21:54:25.772Z,8.77
2018-11-14T21:56:53.512Z,9.07
2018-11-14T21:59:21.199Z,8.93
2018-11-14T22:01:48.730Z,9.10
2018-11-14T22:04:16.316Z,9.83
2018-11-14T22:06:44.097Z,9.50
2018-11-14T22:09:12.623Z,8.70
2018-11-14T22:11:40.179Z,8.93
2018-11-14T22:14:07.824Z,9.33
2018-11-14T22:16:35.442Z,9.43
2018-11-14T22:19:03.795Z,8.50
2018-11-14T22:21:32.027Z,8.93
2018-11-14T22:23:59.563Z,8.33
2018-11-14T22:26:27.103Z,8.90
2018-11-14T22:28:54.763Z,8.97
2018-11-14T22:31:22.419Z,8.60
2018-11-14T22:33:49.948Z,8.27
2018-11-14T22:36:17.456Z,8.93
2018-11-14T22:38:45.041Z,8.67
2018-11-14T22:41:12.660Z,9.57
2018-11-14T22:43:40.164Z,10.00
2018-11-14T22:46:07.711Z,9.60
2018-11-14T22:48:35.252Z,9.80
2018-11-14T22:51:02.833Z,9.47
2018-11-14T22:53:30.507Z,8.70
2018-11-14T22:55:58.049Z,8.30
2018-11-14T22:58:25.670Z,8.60
2018-11-14T23:00:53.313Z,9.23
2018-11-14T23:03:20.869Z,9.17
2018-11-14T23:05:48.372Z,8.23
2018-11-14T23:08:15.952Z,8.50
2018-11-14T23:10:43.565Z,8.77
2018-11-14T23:13:11.148Z,8.83
2018-11-14T23:15:38.670Z,8.20
2018-11-14T23:18:06.188Z,8.63
2018-11-14T23:20:33.824Z,8.17
2018-11-14T23:23:01.443Z,8.70
2018-11-14T23:25:28.996Z,9.50
2018-11-14T23:27:56.541Z,9.33
2018-11-14T23:30:25.320Z,10.17
2018-11-14T23:32:53.678Z,10.00
2018-11-14T23:35:23.444Z,12.80
2018-11-14T23:37:54.137Z,10.27
2018-11-14T23:40:21.731Z,10.90
2018-11-14T23:42:49.975Z,9.17
2018-11-14T23:45:18.491Z,8.90
2018-11-14T23:47:46.662Z,8.77
2018-11-14T23:50:17.688Z,8.97
2018-11-14T23:52:46.270Z,10.20
2018-11-14T23:55:14.544Z,9.90
2018-11-14T23:57:42.071Z,9.43
